Station History

Weather Underground - logo

Station Historical Data
Daily Summary for December 27, 2017 Units:  Both    English   Metric
« Previous Day
Next Day »
Daily Weekly Monthly Yearly Custom
  High: Low: Average:
Temperature: 61.7 °F /  16.5 °C 34.4 °F /  1.3 °C 46.5 °F /  8.1 °C
Dew Point: 43.1 °F /  6.2 °C 31.8 °F /  -0.1 °C 38 °F /  3.3 °C
Humidity: 92 % 47 % 74 %
Wind Speed: 3.5 mph /  5.6 km/h - 0.3 mph /  0.5 km/h
Wind Gust: 3.5 mph /  5.6 km/h - -
Wind:- - WSW
Pressure: 30.35 in /  1027.7 hPa 30.25 in /  1024.3 hPa -
Precipitation: 0.00 in /  0 mm    
Historical Graphs
 
 
Tabular Data for December 27, 2017
Time Temperature Dew Point Pressure Wind Wind Speed Wind Gust Humidity Rainfall Rate (Hourly)
00:00 42.9 °F /  6.1 °C 37.5 °F /  3.1 °C 30.26 in /  1024.6 hPa Calm     81 % 0.00 in /  0 mm
00:05 42.8 °F /  6 °C 37.1 °F /  2.8 °C 30.26 in /  1024.6 hPa Calm     80 % 0.00 in /  0 mm
00:06 42.8 °F /  6 °C 37.1 °F /  2.8 °C 30.26 in /  1024.6 hPa Calm     80 % 0.00 in /  0 mm
00:07 42.8 °F /  6 °C 37.1 °F /  2.8 °C 30.26 in /  1024.6 hPa Calm     80 % 0.00 in /  0 mm
00:12 42.7 °F /  5.9 °C 37.3 °F /  2.9 °C 30.26 in /  1024.6 hPa Calm     81 % 0.00 in /  0 mm
00:13 42.7 °F /  5.9 °C 37.3 °F /  2.9 °C 30.26 in /  1024.6 hPa Calm     81 % 0.00 in /  0 mm
00:18 42.6 °F /  5.9 °C 37.2 °F /  2.9 °C 30.26 in /  1024.6 hPa Calm     81 % 0.00 in /  0 mm
00:23 42.2 °F /  5.7 °C 36.8 °F /  2.7 °C 30.26 in /  1024.6 hPa Calm     81 % 0.00 in /  0 mm
00:24 42.1 °F /  5.6 °C 36.7 °F /  2.6 °C 30.26 in /  1024.6 hPa Calm     81 % 0.00 in /  0 mm
00:29 41.4 °F /  5.2 °C 36.0 °F /  2.2 °C 30.26 in /  1024.6 hPa Calm     81 % 0.00 in /  0 mm
00:31 41.0 °F /  5 °C 35.9 °F /  2.2 °C 30.26 in /  1024.6 hPa Calm     82 % 0.00 in /  0 mm
00:36 39.9 °F /  4.4 °C 35.2 °F /  1.8 °C 30.26 in /  1024.6 hPa Calm     83 % 0.00 in /  0 mm
00:41 39.4 °F /  4.1 °C 35.0 °F /  1.7 °C 30.26 in /  1024.6 hPa Calm     84 % 0.00 in /  0 mm
00:46 39.1 °F /  3.9 °C 35.0 °F /  1.7 °C 30.26 in /  1024.6 hPa Calm     85 % 0.00 in /  0 mm
00:48 38.8 °F /  3.8 °C 34.7 °F /  1.5 °C 30.26 in /  1024.6 hPa Calm     85 % 0.00 in /  0 mm
00:53 38.5 °F /  3.6 °C 34.7 °F /  1.5 °C 30.26 in /  1024.6 hPa Calm     86 % 0.00 in /  0 mm
00:58 38.2 °F /  3.4 °C 34.4 °F /  1.3 °C 30.26 in /  1024.6 hPa Calm     86 % 0.00 in /  0 mm
00:59 38.2 °F /  3.4 °C 34.7 °F /  1.5 °C 30.26 in /  1024.6 hPa Calm     87 % 0.00 in /  0 mm
01:00 38.1 °F /  3.4 °C 34.6 °F /  1.4 °C 30.26 in /  1024.6 hPa Calm     87 % 0.00 in /  0 mm
01:05 37.9 °F /  3.3 °C 34.4 °F /  1.3 °C 30.26 in /  1024.6 hPa Calm     87 % 0.00 in /  0 mm
01:08 37.9 °F /  3.3 °C 34.4 °F /  1.3 °C 30.26 in /  1024.6 hPa Calm     87 % 0.00 in /  0 mm
01:11 37.9 °F /  3.3 °C 34.7 °F /  1.5 °C 30.26 in /  1024.6 hPa Calm     88 % 0.00 in /  0 mm
01:13 37.9 °F /  3.3 °C 34.7 °F /  1.5 °C 30.26 in /  1024.6 hPa Calm     88 % 0.00 in /  0 mm
01:17 37.8 °F /  3.2 °C 34.6 °F /  1.4 °C 30.26 in /  1024.6 hPa Calm     88 % 0.00 in /  0 mm
01:22 37.8 °F /  3.2 °C 34.6 °F /  1.4 °C 30.26 in /  1024.6 hPa Calm     88 % 0.00 in /  0 mm
01:23 37.8 °F /  3.2 °C 34.8 °F /  1.6 °C 30.27 in /  1024.9 hPa Calm     89 % 0.00 in /  0 mm
01:25 37.7 °F /  3.2 °C 34.5 °F /  1.4 °C 30.27 in /  1024.9 hPa Calm     88 % 0.00 in /  0 mm
01:28 37.7 °F /  3.2 °C 34.5 °F /  1.4 °C 30.27 in /  1024.9 hPa Calm     88 % 0.00 in /  0 mm
01:33 37.8 °F /  3.2 °C 34.8 °F /  1.6 °C 30.27 in /  1024.9 hPa Calm     89 % 0.00 in /  0 mm
01:34 37.7 °F /  3.2 °C 34.8 °F /  1.6 °C 30.27 in /  1024.9 hPa Calm     89 % 0.00 in /  0 mm
01:38 37.7 °F /  3.2 °C 34.8 °F /  1.6 °C 30.28 in /  1025.3 hPa Calm     89 % 0.00 in /  0 mm
01:43 37.8 °F /  3.2 °C 34.8 °F /  1.6 °C 30.28 in /  1025.3 hPa Calm     89 % 0.00 in /  0 mm
01:44 37.8 °F /  3.2 °C 34.8 °F /  1.6 °C 30.28 in /  1025.3 hPa Calm     89 % 0.00 in /  0 mm
01:49 37.6 °F /  3.1 °C 34.7 °F /  1.5 °C 30.28 in /  1025.3 hPa Calm     89 % 0.00 in /  0 mm
01:50 37.6 °F /  3.1 °C 34.7 °F /  1.5 °C 30.27 in /  1024.9 hPa Calm     89 % 0.00 in /  0 mm
01:56 37.5 °F /  3.1 °C 34.6 °F /  1.4 °C 30.28 in /  1025.3 hPa Calm     89 % 0.00 in /  0 mm
02:01 37.5 °F /  3.1 °C 34.6 °F /  1.4 °C 30.28 in /  1025.3 hPa Calm     89 % 0.00 in /  0 mm
02:03 37.4 °F /  3 °C 34.5 °F /  1.4 °C 30.28 in /  1025.3 hPa Calm     89 % 0.00 in /  0 mm
02:07 37.4 °F /  3 °C 34.5 °F /  1.4 °C 30.28 in /  1025.3 hPa Calm     89 % 0.00 in /  0 mm
02:12 37.5 °F /  3.1 °C 34.8 °F /  1.6 °C 30.29 in /  1025.6 hPa Calm     90 % 0.00 in /  0 mm
02:13 37.5 °F /  3.1 °C 34.8 °F /  1.6 °C 30.29 in /  1025.6 hPa Calm     90 % 0.00 in /  0 mm
02:18 37.7 °F /  3.2 °C 35.0 °F /  1.7 °C 30.29 in /  1025.6 hPa Calm     90 % 0.00 in /  0 mm
02:21 37.8 °F /  3.2 °C 35.1 °F /  1.7 °C 30.29 in /  1025.6 hPa Calm     90 % 0.00 in /  0 mm
02:26 38.0 °F /  3.3 °C 35.3 °F /  1.8 °C 30.29 in /  1025.6 hPa Calm     90 % 0.00 in /  0 mm
02:27 38.1 °F /  3.4 °C 35.4 °F /  1.9 °C 30.29 in /  1025.6 hPa Calm     90 % 0.00 in /  0 mm
02:32 38.5 °F /  3.6 °C 35.5 °F /  1.9 °C 30.29 in /  1025.6 hPa Calm     89 % 0.00 in /  0 mm
02:33 38.5 °F /  3.6 °C 35.5 °F /  1.9 °C 30.29 in /  1025.6 hPa Calm     89 % 0.00 in /  0 mm
02:38 38.8 °F /  3.8 °C 35.6 °F /  2 °C 30.29 in /  1025.6 hPa Calm     88 % 0.00 in /  0 mm
02:39 38.9 °F /  3.8 °C 35.6 °F /  2 °C 30.29 in /  1025.6 hPa Calm     88 % 0.00 in /  0 mm
02:41 38.9 °F /  3.8 °C 35.6 °F /  2 °C 30.29 in /  1025.6 hPa Calm     88 % 0.00 in /  0 mm
02:46 39.0 °F /  3.9 °C 35.7 °F /  2.1 °C 30.29 in /  1025.6 hPa Calm     88 % 0.00 in /  0 mm
02:51 38.9 °F /  3.8 °C 35.4 °F /  1.9 °C 30.29 in /  1025.6 hPa Calm     87 % 0.00 in /  0 mm
02:56 38.2 °F /  3.4 °C 34.7 °F /  1.5 °C 30.29 in /  1025.6 hPa Calm     87 % 0.00 in /  0 mm
02:59 37.9 °F /  3.3 °C 34.4 °F /  1.3 °C 30.28 in /  1025.3 hPa Calm     87 % 0.00 in /  0 mm
03:03 37.6 °F /  3.1 °C 34.1 °F /  1.2 °C 30.28 in /  1025.3 hPa Calm     87 % 0.00 in /  0 mm
03:08 37.2 °F /  2.9 °C 33.7 °F /  0.9 °C 30.28 in /  1025.3 hPa Calm     87 % 0.00 in /  0 mm
03:09 37.1 °F /  2.8 °C 33.9 °F /  1.1 °C 30.28 in /  1025.3 hPa Calm     88 % 0.00 in /  0 mm
03:14 36.8 °F /  2.7 °C 33.6 °F /  0.9 °C 30.28 in /  1025.3 hPa Calm     88 % 0.00 in /  0 mm
03:18 36.7 °F /  2.6 °C 33.5 °F /  0.8 °C 30.28 in /  1025.3 hPa Calm     88 % 0.00 in /  0 mm
03:23 36.5 °F /  2.5 °C 33.6 °F /  0.9 °C 30.28 in /  1025.3 hPa Calm     89 % 0.00 in /  0 mm
03:28 36.1 °F /  2.3 °C 33.2 °F /  0.7 °C 30.28 in /  1025.3 hPa Calm     89 % 0.00 in /  0 mm
03:29 36.1 °F /  2.3 °C 33.2 °F /  0.7 °C 30.28 in /  1025.3 hPa Calm     89 % 0.00 in /  0 mm
03:30 36.1 °F /  2.3 °C 33.2 °F /  0.7 °C 30.27 in /  1024.9 hPa Calm     89 % 0.00 in /  0 mm
03:32 36.0 °F /  2.2 °C 33.1 °F /  0.6 °C 30.27 in /  1024.9 hPa Calm     89 % 0.00 in /  0 mm
03:35 36.0 °F /  2.2 °C 33.4 °F /  0.8 °C 30.27 in /  1024.9 hPa Calm     90 % 0.00 in /  0 mm
03:40 36.0 °F /  2.2 °C 33.4 °F /  0.8 °C 30.27 in /  1024.9 hPa Calm     90 % 0.00 in /  0 mm
03:41 36.0 °F /  2.2 °C 33.4 °F /  0.8 °C 30.27 in /  1024.9 hPa Calm     90 % 0.00 in /  0 mm
03:46 36.0 °F /  2.2 °C 33.6 °F /  0.9 °C 30.27 in /  1024.9 hPa Calm     91 % 0.00 in /  0 mm
03:47 36.1 °F /  2.3 °C 33.7 °F /  0.9 °C 30.28 in /  1025.3 hPa Calm     91 % 0.00 in /  0 mm
03:53 36.2 °F /  2.3 °C 33.8 °F /  1 °C 30.28 in /  1025.3 hPa Calm     91 % 0.00 in /  0 mm
03:56 36.2 °F /  2.3 °C 33.8 °F /  1 °C 30.28 in /  1025.3 hPa Calm     91 % 0.00 in /  0 mm
04:00 36.1 °F /  2.3 °C 33.7 °F /  0.9 °C 30.28 in /  1025.3 hPa Calm     91 % 0.00 in /  0 mm
04:05 36.3 °F /  2.4 °C 33.6 °F /  0.9 °C 30.28 in /  1025.3 hPa Calm     90 % 0.00 in /  0 mm
04:06 36.3 °F /  2.4 °C 33.6 °F /  0.9 °C 30.27 in /  1024.9 hPa Calm     90 % 0.00 in /  0 mm
04:11 36.4 °F /  2.4 °C 33.7 °F /  0.9 °C 30.28 in /  1025.3 hPa Calm     90 % 0.00 in /  0 mm
04:14 36.4 °F /  2.4 °C 33.7 °F /  0.9 °C 30.28 in /  1025.3 hPa Calm     90 % 0.00 in /  0 mm
04:19 36.4 °F /  2.4 °C 33.7 °F /  0.9 °C 30.28 in /  1025.3 hPa Calm     90 % 0.00 in /  0 mm
04:24 36.3 °F /  2.4 °C 33.4 °F /  0.8 °C 30.27 in /  1024.9 hPa Calm     89 % 0.00 in /  0 mm
04:27 36.2 °F /  2.3 °C 33.3 °F /  0.7 °C 30.27 in /  1024.9 hPa Calm     89 % 0.00 in /  0 mm
04:30 36.1 °F /  2.3 °C 33.2 °F /  0.7 °C 30.27 in /  1024.9 hPa Calm     89 % 0.00 in /  0 mm
04:33 36.0 °F /  2.2 °C 33.1 °F /  0.6 °C 30.27 in /  1024.9 hPa Calm     89 % 0.00 in /  0 mm
04:38 36.0 °F /  2.2 °C 33.1 °F /  0.6 °C 30.27 in /  1024.9 hPa Calm     89 % 0.00 in /  0 mm
04:39 35.9 °F /  2.2 °C 33.0 °F /  0.6 °C 30.27 in /  1024.9 hPa Calm     89 % 0.00 in /  0 mm
04:44 35.8 °F /  2.1 °C 32.9 °F /  0.5 °C 30.27 in /  1024.9 hPa Calm     89 % 0.00 in /  0 mm
04:49 35.7 °F /  2.1 °C 32.8 °F /  0.4 °C 30.28 in /  1025.3 hPa Calm     89 % 0.00 in /  0 mm
04:50 35.6 °F /  2 °C 32.7 °F /  0.4 °C 30.28 in /  1025.3 hPa Calm     89 % 0.00 in /  0 mm
04:54 35.7 °F /  2.1 °C 32.8 °F /  0.4 °C 30.27 in /  1024.9 hPa Calm     89 % 0.00 in /  0 mm
04:56 35.7 °F /  2.1 °C 32.8 °F /  0.4 °C 30.27 in /  1024.9 hPa Calm     89 % 0.00 in /  0 mm
05:01 35.7 °F /  2.1 °C 33.1 °F /  0.6 °C 30.28 in /  1025.3 hPa Calm     90 % 0.00 in /  0 mm
05:06 36.0 °F /  2.2 °C 33.4 °F /  0.8 °C 30.28 in /  1025.3 hPa NNE 1.2 mph /  1.9 km/h   90 % 0.00 in /  0 mm
05:08 36.0 °F /  2.2 °C 33.4 °F /  0.8 °C 30.28 in /  1025.3 hPa Calm     90 % 0.00 in /  0 mm
05:11 36.1 °F /  2.3 °C 33.2 °F /  0.7 °C 30.28 in /  1025.3 hPa Calm     89 % 0.00 in /  0 mm
05:13 36.1 °F /  2.3 °C 33.2 °F /  0.7 °C 30.28 in /  1025.3 hPa Calm     89 % 0.00 in /  0 mm
05:16 36.1 °F /  2.3 °C 33.5 °F /  0.8 °C 30.28 in /  1025.3 hPa Calm     90 % 0.00 in /  0 mm
05:20 36.1 °F /  2.3 °C 33.5 °F /  0.8 °C 30.28 in /  1025.3 hPa Calm     90 % 0.00 in /  0 mm
05:23 35.9 °F /  2.2 °C 33.3 °F /  0.7 °C 30.28 in /  1025.3 hPa Calm     90 % 0.00 in /  0 mm
05:26 35.7 °F /  2.1 °C 33.1 °F /  0.6 °C 30.28 in /  1025.3 hPa Calm     90 % 0.00 in /  0 mm
05:29 35.6 °F /  2 °C 33.0 °F /  0.6 °C 30.28 in /  1025.3 hPa Calm     90 % 0.00 in /  0 mm
05:33 35.6 °F /  2 °C 33.0 °F /  0.6 °C 30.28 in /  1025.3 hPa Calm     90 % 0.00 in /  0 mm
05:35 35.6 °F /  2 °C 33.0 °F /  0.6 °C 30.28 in /  1025.3 hPa Calm     90 % 0.00 in /  0 mm
05:40 35.8 °F /  2.1 °C 33.2 °F /  0.7 °C 30.28 in /  1025.3 hPa Calm     90 % 0.00 in /  0 mm
05:45 35.8 °F /  2.1 °C 33.2 °F /  0.7 °C 30.29 in /  1025.6 hPa Calm     90 % 0.00 in /  0 mm
05:49 35.9 °F /  2.2 °C 33.3 °F /  0.7 °C 30.29 in /  1025.6 hPa Calm     90 % 0.00 in /  0 mm
05:51 36.0 °F /  2.2 °C 33.4 °F /  0.8 °C 30.29 in /  1025.6 hPa Calm     90 % 0.00 in /  0 mm
05:56 36.0 °F /  2.2 °C 33.1 °F /  0.6 °C 30.29 in /  1025.6 hPa Calm     89 % 0.00 in /  0 mm
06:01 35.8 °F /  2.1 °C 32.9 °F /  0.5 °C 30.29 in /  1025.6 hPa Calm     89 % 0.00 in /  0 mm
06:06 35.4 °F /  1.9 °C 32.5 °F /  0.3 °C 30.30 in /  1026 hPa NNE 1.2 mph /  1.9 km/h   89 % 0.00 in /  0 mm
06:08 35.2 °F /  1.8 °C 32.3 °F /  0.2 °C 30.30 in /  1026 hPa Calm     89 % 0.00 in /  0 mm
06:13 34.8 °F /  1.6 °C 31.9 °F /  -0.1 °C 30.30 in /  1026 hPa Calm     89 % 0.00 in /  0 mm
06:15 34.8 °F /  1.6 °C 32.2 °F /  0.1 °C 30.30 in /  1026 hPa Calm     90 % 0.00 in /  0 mm
06:20 34.6 °F /  1.4 °C 32.0 °F /  0 °C 30.30 in /  1026 hPa Calm     90 % 0.00 in /  0 mm
06:25 34.6 °F /  1.4 °C 32.2 °F /  0.1 °C 30.30 in /  1026 hPa Calm     91 % 0.00 in /  0 mm
06:30 34.8 °F /  1.6 °C 32.4 °F /  0.2 °C 30.30 in /  1026 hPa Calm     91 % 0.00 in /  0 mm
06:34 34.8 °F /  1.6 °C 32.4 °F /  0.2 °C 30.30 in /  1026 hPa Calm     91 % 0.00 in /  0 mm
06:39 34.9 °F /  1.6 °C 32.8 °F /  0.4 °C 30.30 in /  1026 hPa Calm     92 % 0.00 in /  0 mm
06:40 35.0 °F /  1.7 °C 32.9 °F /  0.5 °C 30.30 in /  1026 hPa Calm     92 % 0.00 in /  0 mm
06:45 35.3 °F /  1.8 °C 33.2 °F /  0.7 °C 30.31 in /  1026.3 hPa Calm     92 % 0.00 in /  0 mm
06:50 35.5 °F /  1.9 °C 33.1 °F /  0.6 °C 30.31 in /  1026.3 hPa Calm     91 % 0.00 in /  0 mm
06:51 35.5 °F /  1.9 °C 33.1 °F /  0.6 °C 30.31 in /  1026.3 hPa Calm     91 % 0.00 in /  0 mm
06:56 35.5 °F /  1.9 °C 33.1 °F /  0.6 °C 30.31 in /  1026.3 hPa Calm     91 % 0.00 in /  0 mm
06:57 35.5 °F /  1.9 °C 33.1 °F /  0.6 °C 30.31 in /  1026.3 hPa Calm     91 % 0.00 in /  0 mm
07:02 35.4 °F /  1.9 °C 32.8 °F /  0.4 °C 30.31 in /  1026.3 hPa Calm     90 % 0.00 in /  0 mm
07:04 35.3 °F /  1.8 °C 32.7 °F /  0.4 °C 30.31 in /  1026.3 hPa Calm     90 % 0.00 in /  0 mm
07:05 35.3 °F /  1.8 °C 32.7 °F /  0.4 °C 30.31 in /  1026.3 hPa Calm     90 % 0.00 in /  0 mm
07:10 35.2 °F /  1.8 °C 32.8 °F /  0.4 °C 30.31 in /  1026.3 hPa Calm     91 % 0.00 in /  0 mm
07:15 35.1 °F /  1.7 °C 32.7 °F /  0.4 °C 30.31 in /  1026.3 hPa Calm     91 % 0.00 in /  0 mm
07:20 34.9 °F /  1.6 °C 32.3 °F /  0.2 °C 30.31 in /  1026.3 hPa Calm     90 % 0.00 in /  0 mm
07:22 34.8 °F /  1.6 °C 32.2 °F /  0.1 °C 30.31 in /  1026.3 hPa Calm     90 % 0.00 in /  0 mm
07:27 34.6 °F /  1.4 °C 32.0 °F /  0 °C 30.31 in /  1026.3 hPa Calm     90 % 0.00 in /  0 mm
07:28 34.5 °F /  1.4 °C 31.9 °F /  -0.1 °C 30.31 in /  1026.3 hPa Calm     90 % 0.00 in /  0 mm
07:29 34.4 °F /  1.3 °C 31.8 °F /  -0.1 °C 30.31 in /  1026.3 hPa Calm     90 % 0.00 in /  0 mm
07:34 34.5 °F /  1.4 °C 32.1 °F /  0.1 °C 30.31 in /  1026.3 hPa Calm     91 % 0.00 in /  0 mm
07:35 34.5 °F /  1.4 °C 32.1 °F /  0.1 °C 30.31 in /  1026.3 hPa Calm     91 % 0.00 in /  0 mm
07:38 34.7 °F /  1.5 °C 32.3 °F /  0.2 °C 30.31 in /  1026.3 hPa Calm     91 % 0.00 in /  0 mm
07:43 34.9 °F /  1.6 °C 32.5 °F /  0.3 °C 30.31 in /  1026.3 hPa Calm     91 % 0.00 in /  0 mm
07:44 34.9 °F /  1.6 °C 32.8 °F /  0.4 °C 30.31 in /  1026.3 hPa Calm     92 % 0.00 in /  0 mm
07:47 35.1 °F /  1.7 °C 33.0 °F /  0.6 °C 30.31 in /  1026.3 hPa Calm     92 % 0.00 in /  0 mm
07:49 35.3 °F /  1.8 °C 33.2 °F /  0.7 °C 30.31 in /  1026.3 hPa Calm     92 % 0.00 in /  0 mm
07:54 35.6 °F /  2 °C 33.5 °F /  0.8 °C 30.31 in /  1026.3 hPa Calm     92 % 0.00 in /  0 mm
07:56 35.7 °F /  2.1 °C 33.6 °F /  0.9 °C 30.31 in /  1026.3 hPa Calm     92 % 0.00 in /  0 mm
08:01 36.3 °F /  2.4 °C 34.2 °F /  1.2 °C 30.32 in /  1026.6 hPa Calm     92 % 0.00 in /  0 mm
08:03 36.6 °F /  2.6 °C 34.5 °F /  1.4 °C 30.32 in /  1026.6 hPa Calm     92 % 0.00 in /  0 mm
08:08 37.2 °F /  2.9 °C 34.8 °F /  1.6 °C 30.32 in /  1026.6 hPa Calm     91 % 0.00 in /  0 mm
08:13 38.3 °F /  3.5 °C 35.9 °F /  2.2 °C 30.32 in /  1026.6 hPa Calm     91 % 0.00 in /  0 mm
08:14 38.4 °F /  3.6 °C 36.0 °F /  2.2 °C 30.31 in /  1026.3 hPa Calm     91 % 0.00 in /  0 mm
08:17 38.9 °F /  3.8 °C 36.2 °F /  2.3 °C 30.32 in /  1026.6 hPa Calm     90 % 0.00 in /  0 mm
08:19 39.5 °F /  4.2 °C 36.5 °F /  2.5 °C 30.32 in /  1026.6 hPa Calm     89 % 0.00 in /  0 mm
08:24 40.4 °F /  4.7 °C 37.1 °F /  2.8 °C 30.32 in /  1026.6 hPa Calm     88 % 0.00 in /  0 mm
08:26 40.9 °F /  4.9 °C 37.6 °F /  3.1 °C 30.32 in /  1026.6 hPa Calm     88 % 0.00 in /  0 mm
08:31 41.9 °F /  5.5 °C 37.4 °F /  3 °C 30.32 in /  1026.6 hPa Calm     84 % 0.00 in /  0 mm
08:36 42.0 °F /  5.6 °C 37.5 °F /  3.1 °C 30.33 in /  1027 hPa Calm     84 % 0.00 in /  0 mm
08:41 42.8 °F /  6 °C 38.6 °F /  3.7 °C 30.33 in /  1027 hPa Calm     85 % 0.00 in /  0 mm
08:46 43.6 °F /  6.4 °C 38.8 °F /  3.8 °C 30.33 in /  1027 hPa Calm     83 % 0.00 in /  0 mm
08:48 43.8 °F /  6.6 °C 39.0 °F /  3.9 °C 30.33 in /  1027 hPa Calm     83 % 0.00 in /  0 mm
08:53 44.5 °F /  6.9 °C 39.7 °F /  4.3 °C 30.34 in /  1027.3 hPa Calm     83 % 0.00 in /  0 mm
08:55 44.8 °F /  7.1 °C 39.6 °F /  4.2 °C 30.34 in /  1027.3 hPa Calm     82 % 0.00 in /  0 mm
09:00 45.5 °F /  7.5 °C 39.0 °F /  3.9 °C 30.34 in /  1027.3 hPa NNE 1.2 mph /  1.9 km/h   78 % 0.00 in /  0 mm
09:05 46.1 °F /  7.8 °C 39.3 °F /  4.1 °C 30.34 in /  1027.3 hPa Calm     77 % 0.00 in /  0 mm
09:07 46.2 °F /  7.9 °C 39.1 °F /  3.9 °C 30.34 in /  1027.3 hPa Calm     76 % 0.00 in /  0 mm
09:11 46.7 °F /  8.2 °C 39.5 °F /  4.2 °C 30.35 in /  1027.7 hPa Calm     76 % 0.00 in /  0 mm
09:13 47.0 °F /  8.3 °C 39.5 °F /  4.2 °C 30.34 in /  1027.3 hPa Calm     75 % 0.00 in /  0 mm
09:18 48.2 °F /  9 °C 39.9 °F /  4.4 °C 30.34 in /  1027.3 hPa Calm     73 % 0.00 in /  0 mm
09:19 48.5 °F /  9.2 °C 40.2 °F /  4.6 °C 30.34 in /  1027.3 hPa NE 1.0 mph /  1.6 km/h   73 % 0.00 in /  0 mm
09:25 49.4 °F /  9.7 °C 40.0 °F /  4.4 °C 30.34 in /  1027.3 hPa East 1.2 mph /  1.9 km/h 1.2 mph /  1.9 km/h 70 % 0.00 in /  0 mm
09:26 49.5 °F /  9.7 °C 40.1 °F /  4.5 °C 30.34 in /  1027.3 hPa Calm     70 % 0.00 in /  0 mm
09:31 50.0 °F /  10 °C 40.2 °F /  4.6 °C 30.34 in /  1027.3 hPa ESE 1.2 mph /  1.9 km/h   69 % 0.00 in /  0 mm
09:35 50.4 °F /  10.2 °C 40.6 °F /  4.8 °C 30.34 in /  1027.3 hPa Calm     69 % 0.00 in /  0 mm
09:36 50.5 °F /  10.3 °C 40.7 °F /  4.8 °C 30.34 in /  1027.3 hPa Calm     69 % 0.00 in /  0 mm
09:41 51.0 °F /  10.6 °C 40.0 °F /  4.4 °C 30.34 in /  1027.3 hPa Calm     66 % 0.00 in /  0 mm
09:44 50.9 °F /  10.5 °C 39.9 °F /  4.4 °C 30.35 in /  1027.7 hPa Calm     66 % 0.00 in /  0 mm
09:49 50.8 °F /  10.4 °C 40.2 °F /  4.6 °C 30.35 in /  1027.7 hPa Calm     67 % 0.00 in /  0 mm
09:50 50.9 °F /  10.5 °C 40.3 °F /  4.6 °C 30.35 in /  1027.7 hPa Calm     67 % 0.00 in /  0 mm
09:55 51.2 °F /  10.7 °C 39.8 °F /  4.3 °C 30.34 in /  1027.3 hPa NW 1.2 mph /  1.9 km/h   65 % 0.00 in /  0 mm
09:56 51.3 °F /  10.7 °C 39.9 °F /  4.4 °C 30.35 in /  1027.7 hPa Calm     65 % 0.00 in /  0 mm
10:00 51.7 °F /  10.9 °C 39.9 °F /  4.4 °C 30.35 in /  1027.7 hPa Calm     64 % 0.00 in /  0 mm
10:03 52.1 °F /  11.2 °C 40.3 °F /  4.6 °C 30.35 in /  1027.7 hPa Calm     64 % 0.00 in /  0 mm
10:08 52.2 °F /  11.2 °C 40.0 °F /  4.4 °C 30.35 in /  1027.7 hPa Calm     63 % 0.00 in /  0 mm
10:09 52.2 °F /  11.2 °C 40.0 °F /  4.4 °C 30.35 in /  1027.7 hPa SW 1.2 mph /  1.9 km/h   63 % 0.00 in /  0 mm
10:14 52.8 °F /  11.6 °C 39.7 °F /  4.3 °C 30.35 in /  1027.7 hPa West 1.2 mph /  1.9 km/h 1.2 mph /  1.9 km/h 61 % 0.00 in /  0 mm
10:16 52.7 °F /  11.5 °C 39.6 °F /  4.2 °C 30.34 in /  1027.3 hPa Calm     61 % 0.00 in /  0 mm
10:21 52.6 °F /  11.4 °C 39.9 °F /  4.4 °C 30.34 in /  1027.3 hPa Calm     62 % 0.00 in /  0 mm
10:26 52.9 °F /  11.6 °C 39.4 °F /  4.1 °C 30.34 in /  1027.3 hPa Calm     60 % 0.00 in /  0 mm
10:27 53.0 °F /  11.7 °C 39.5 °F /  4.2 °C 30.34 in /  1027.3 hPa NW 1.2 mph /  1.9 km/h 1.2 mph /  1.9 km/h 60 % 0.00 in /  0 mm
10:32 53.6 °F /  12 °C 40.0 °F /  4.4 °C 30.34 in /  1027.3 hPa Calm     60 % 0.00 in /  0 mm
10:37 54.1 °F /  12.3 °C 40.5 °F /  4.7 °C 30.34 in /  1027.3 hPa Calm     60 % 0.00 in /  0 mm
10:42 54.2 °F /  12.3 °C 39.3 °F /  4.1 °C 30.33 in /  1027 hPa West 2.3 mph /  3.7 km/h   57 % 0.00 in /  0 mm
10:48 54.7 °F /  12.6 °C 40.6 °F /  4.8 °C 30.33 in /  1027 hPa Calm     59 % 0.00 in /  0 mm
10:49 54.9 °F /  12.7 °C 40.8 °F /  4.9 °C 30.33 in /  1027 hPa Calm     59 % 0.00 in /  0 mm
10:54 55.0 °F /  12.8 °C 40.0 °F /  4.4 °C 30.33 in /  1027 hPa WNW 1.2 mph /  1.9 km/h 1.2 mph /  1.9 km/h 57 % 0.00 in /  0 mm
10:59 55.1 °F /  12.8 °C 40.1 °F /  4.5 °C 30.33 in /  1027 hPa Calm     57 % 0.00 in /  0 mm
11:03 55.5 °F /  13.1 °C 40.0 °F /  4.4 °C 30.33 in /  1027 hPa Calm     56 % 0.00 in /  0 mm
11:08 56.3 °F /  13.5 °C 40.8 °F /  4.9 °C 30.33 in /  1027 hPa SE 2.3 mph /  3.7 km/h 2.3 mph /  3.7 km/h 56 % 0.00 in /  0 mm
11:12 56.6 °F /  13.7 °C 41.1 °F /  5.1 °C 30.32 in /  1026.6 hPa Calm     56 % 0.00 in /  0 mm
11:17 56.6 °F /  13.7 °C 40.6 °F /  4.8 °C 30.32 in /  1026.6 hPa Calm     55 % 0.00 in /  0 mm
11:22 56.5 °F /  13.6 °C 40.5 °F /  4.7 °C 30.32 in /  1026.6 hPa SE 1.2 mph /  1.9 km/h 1.2 mph /  1.9 km/h 55 % 0.00 in /  0 mm
11:27 56.9 °F /  13.8 °C 39.9 °F /  4.4 °C 30.32 in /  1026.6 hPa NW 2.3 mph /  3.7 km/h 2.3 mph /  3.7 km/h 53 % 0.00 in /  0 mm
11:29 57.0 °F /  13.9 °C 40.0 °F /  4.4 °C 30.32 in /  1026.6 hPa Calm     53 % 0.00 in /  0 mm
11:34 56.9 °F /  13.8 °C 39.9 °F /  4.4 °C 30.32 in /  1026.6 hPa South 3.0 mph /  4.8 km/h 3.0 mph /  4.8 km/h 53 % 0.00 in /  0 mm
11:39 57.6 °F /  14.2 °C 41.1 °F /  5.1 °C 30.31 in /  1026.3 hPa South 2.3 mph /  3.7 km/h 2.3 mph /  3.7 km/h 54 % 0.00 in /  0 mm
11:40 57.6 °F /  14.2 °C 41.1 °F /  5.1 °C 30.31 in /  1026.3 hPa SSE 1.2 mph /  1.9 km/h 1.2 mph /  1.9 km/h 54 % 0.00 in /  0 mm
11:45 57.8 °F /  14.3 °C 41.3 °F /  5.2 °C 30.31 in /  1026.3 hPa South 1.2 mph /  1.9 km/h 1.2 mph /  1.9 km/h 54 % 0.00 in /  0 mm
11:50 58.4 °F /  14.7 °C 42.3 °F /  5.7 °C 30.31 in /  1026.3 hPa SSE 1.2 mph /  1.9 km/h   55 % 0.00 in /  0 mm
11:51 58.4 °F /  14.7 °C 42.3 °F /  5.7 °C 30.31 in /  1026.3 hPa Calm     55 % 0.00 in /  0 mm
11:53 58.5 °F /  14.7 °C 41.4 °F /  5.2 °C 30.31 in /  1026.3 hPa SSE 1.2 mph /  1.9 km/h 1.2 mph /  1.9 km/h 53 % 0.00 in /  0 mm
11:57 58.5 °F /  14.7 °C 42.4 °F /  5.8 °C 30.31 in /  1026.3 hPa Calm     55 % 0.00 in /  0 mm
12:02 58.5 °F /  14.7 °C 41.4 °F /  5.2 °C 30.30 in /  1026 hPa SSW 1.2 mph /  1.9 km/h 1.2 mph /  1.9 km/h 53 % 0.00 in /  0 mm
12:07 58.5 °F /  14.7 °C 41.4 °F /  5.2 °C 30.30 in /  1026 hPa SE 2.3 mph /  3.7 km/h 2.3 mph /  3.7 km/h 53 % 0.00 in /  0 mm
12:12 58.7 °F /  14.8 °C 41.6 °F /  5.3 °C 30.30 in /  1026 hPa NNW 2.3 mph /  3.7 km/h 2.3 mph /  3.7 km/h 53 % 0.00 in /  0 mm
12:13 58.7 °F /  14.8 °C 41.1 °F /  5.1 °C 30.30 in /  1026 hPa WNW 1.2 mph /  1.9 km/h 1.2 mph /  1.9 km/h 52 % 0.00 in /  0 mm
12:18 58.8 °F /  14.9 °C 41.2 °F /  5.1 °C 30.29 in /  1025.6 hPa NW 2.3 mph /  3.7 km/h 2.3 mph /  3.7 km/h 52 % 0.00 in /  0 mm
12:19 58.7 °F /  14.8 °C 41.1 °F /  5.1 °C 30.29 in /  1025.6 hPa NW 1.2 mph /  1.9 km/h 1.2 mph /  1.9 km/h 52 % 0.00 in /  0 mm
12:21 58.7 °F /  14.8 °C 41.1 °F /  5.1 °C 30.29 in /  1025.6 hPa NW 1.2 mph /  1.9 km/h 1.2 mph /  1.9 km/h 52 % 0.00 in /  0 mm
12:26 58.9 °F /  14.9 °C 41.8 °F /  5.4 °C 30.29 in /  1025.6 hPa West 1.2 mph /  1.9 km/h 1.2 mph /  1.9 km/h 53 % 0.00 in /  0 mm
12:27 59.0 °F /  15 °C 42.4 °F /  5.8 °C 30.29 in /  1025.6 hPa West 2.3 mph /  3.7 km/h 2.3 mph /  3.7 km/h 54 % 0.00 in /  0 mm
12:32 59.0 °F /  15 °C 41.9 °F /  5.5 °C 30.28 in /  1025.3 hPa NW 2.3 mph /  3.7 km/h 2.3 mph /  3.7 km/h 53 % 0.00 in /  0 mm
12:36 59.1 °F /  15.1 °C 42.0 °F /  5.6 °C 30.28 in /  1025.3 hPa NNE 2.0 mph /  3.2 km/h 2.0 mph /  3.2 km/h 53 % 0.00 in /  0 mm
12:41 59.0 °F /  15 °C 41.4 °F /  5.2 °C 30.28 in /  1025.3 hPa WNW 2.3 mph /  3.7 km/h 2.3 mph /  3.7 km/h 52 % 0.00 in /  0 mm
12:46 58.8 °F /  14.9 °C 41.2 °F /  5.1 °C 30.28 in /  1025.3 hPa West 1.2 mph /  1.9 km/h 1.2 mph /  1.9 km/h 52 % 0.00 in /  0 mm
12:50 59.0 °F /  15 °C 42.4 °F /  5.8 °C 30.28 in /  1025.3 hPa NNW 1.0 mph /  1.6 km/h 1.0 mph /  1.6 km/h 54 % 0.00 in /  0 mm
12:51 59.2 °F /  15.1 °C 42.6 °F /  5.9 °C 30.27 in /  1024.9 hPa WNW 1.2 mph /  1.9 km/h 1.2 mph /  1.9 km/h 54 % 0.00 in /  0 mm
12:56 59.5 °F /  15.3 °C 41.9 °F /  5.5 °C 30.27 in /  1024.9 hPa SSW 1.2 mph /  1.9 km/h 1.2 mph /  1.9 km/h 52 % 0.00 in /  0 mm
12:57 59.5 °F /  15.3 °C 41.9 °F /  5.5 °C 30.27 in /  1024.9 hPa SSW 1.2 mph /  1.9 km/h 1.2 mph /  1.9 km/h 52 % 0.00 in /  0 mm
12:58 59.6 °F /  15.3 °C 41.9 °F /  5.5 °C 30.27 in /  1024.9 hPa Calm   0.1 mph /  0.2 km/h 52 % 0.00 in /  0 mm
13:04 60.0 °F /  15.6 °C 42.8 °F /  6 °C 30.26 in /  1024.6 hPa West 1.0 mph /  1.6 km/h   53 % 0.00 in /  0 mm
13:06 60.0 °F /  15.6 °C 41.3 °F /  5.2 °C 30.26 in /  1024.6 hPa WNW 2.3 mph /  3.7 km/h 2.3 mph /  3.7 km/h 50 % 0.00 in /  0 mm
13:11 59.8 °F /  15.4 °C 42.1 °F /  5.6 °C 30.26 in /  1024.6 hPa NW 2.0 mph /  3.2 km/h 2.0 mph /  3.2 km/h 52 % 0.00 in /  0 mm
13:16 60.0 °F /  15.6 °C 41.8 °F /  5.4 °C 30.26 in /  1024.6 hPa NW 1.2 mph /  1.9 km/h   51 % 0.00 in /  0 mm
13:17 59.9 °F /  15.5 °C 41.7 °F /  5.4 °C 30.26 in /  1024.6 hPa NW 1.2 mph /  1.9 km/h   51 % 0.00 in /  0 mm
13:22 60.0 °F /  15.6 °C 41.8 °F /  5.4 °C 30.26 in /  1024.6 hPa SE 1.2 mph /  1.9 km/h 1.2 mph /  1.9 km/h 51 % 0.00 in /  0 mm
13:27 60.3 °F /  15.7 °C 42.6 °F /  5.9 °C 30.25 in /  1024.3 hPa NE 1.2 mph /  1.9 km/h 1.2 mph /  1.9 km/h 52 % 0.00 in /  0 mm
13:28 60.3 °F /  15.7 °C 42.1 °F /  5.6 °C 30.25 in /  1024.3 hPa NE 1.2 mph /  1.9 km/h 1.2 mph /  1.9 km/h 51 % 0.00 in /  0 mm
13:32 60.5 °F /  15.8 °C 42.8 °F /  6 °C 30.25 in /  1024.3 hPa South 1.2 mph /  1.9 km/h 1.2 mph /  1.9 km/h 52 % 0.00 in /  0 mm
13:37 60.8 °F /  16 °C 43.1 °F /  6.2 °C 30.25 in /  1024.3 hPa Calm     52 % 0.00 in /  0 mm
13:38 60.8 °F /  16 °C 43.1 °F /  6.2 °C 30.25 in /  1024.3 hPa SE 1.2 mph /  1.9 km/h   52 % 0.00 in /  0 mm
13:43 61.0 °F /  16.1 °C 42.2 °F /  5.7 °C 30.25 in /  1024.3 hPa Calm     50 % 0.00 in /  0 mm
13:44 61.0 °F /  16.1 °C 42.7 °F /  5.9 °C 30.25 in /  1024.3 hPa Calm     51 % 0.00 in /  0 mm
13:49 61.2 °F /  16.2 °C 42.4 °F /  5.8 °C 30.25 in /  1024.3 hPa Calm     50 % 0.00 in /  0 mm
13:50 61.3 °F /  16.3 °C 43.0 °F /  6.1 °C 30.25 in /  1024.3 hPa Calm     51 % 0.00 in /  0 mm
13:53 61.5 °F /  16.4 °C 42.7 °F /  5.9 °C 30.25 in /  1024.3 hPa SSE 1.2 mph /  1.9 km/h   50 % 0.00 in /  0 mm
13:58 61.7 °F /  16.5 °C 42.3 °F /  5.7 °C 30.25 in /  1024.3 hPa Calm     49 % 0.00 in /  0 mm
14:00 61.7 °F /  16.5 °C 41.8 °F /  5.4 °C 30.25 in /  1024.3 hPa NW 1.2 mph /  1.9 km/h 1.2 mph /  1.9 km/h 48 % 0.00 in /  0 mm
14:03 61.4 °F /  16.3 °C 41.5 °F /  5.3 °C 30.25 in /  1024.3 hPa WNW 2.3 mph /  3.7 km/h 2.3 mph /  3.7 km/h 48 % 0.00 in /  0 mm
14:08 61.1 °F /  16.2 °C 40.7 °F /  4.8 °C 30.26 in /  1024.6 hPa NW 1.2 mph /  1.9 km/h   47 % 0.00 in /  0 mm
14:09 61.1 °F /  16.2 °C 41.2 °F /  5.1 °C 30.26 in /  1024.6 hPa Calm     48 % 0.00 in /  0 mm
14:14 61.0 °F /  16.1 °C 41.7 °F /  5.4 °C 30.26 in /  1024.6 hPa NW 3.5 mph /  5.6 km/h 3.5 mph /  5.6 km/h 49 % 0.00 in /  0 mm
14:19 60.9 °F /  16.1 °C 41.6 °F /  5.3 °C 30.26 in /  1024.6 hPa NW 1.2 mph /  1.9 km/h 1.2 mph /  1.9 km/h 49 % 0.00 in /  0 mm
14:21 60.9 °F /  16.1 °C 41.6 °F /  5.3 °C 30.26 in /  1024.6 hPa NW 2.3 mph /  3.7 km/h 2.3 mph /  3.7 km/h 49 % 0.00 in /  0 mm
14:26 60.7 °F /  15.9 °C 41.4 °F /  5.2 °C 30.26 in /  1024.6 hPa NW 2.3 mph /  3.7 km/h 2.3 mph /  3.7 km/h 49 % 0.00 in /  0 mm
14:29 60.6 °F /  15.9 °C 41.3 °F /  5.2 °C 30.26 in /  1024.6 hPa WNW 1.0 mph /  1.6 km/h   49 % 0.00 in /  0 mm
14:32 60.7 °F /  15.9 °C 41.9 °F /  5.5 °C 30.26 in /  1024.6 hPa WNW 1.2 mph /  1.9 km/h 1.2 mph /  1.9 km/h 50 % 0.00 in /  0 mm
14:36 60.9 °F /  16.1 °C 41.6 °F /  5.3 °C 30.26 in /  1024.6 hPa NW 2.3 mph /  3.7 km/h 2.3 mph /  3.7 km/h 49 % 0.00 in /  0 mm
14:41 61.0 °F /  16.1 °C 41.2 °F /  5.1 °C 30.26 in /  1024.6 hPa NW 2.3 mph /  3.7 km/h 2.3 mph /  3.7 km/h 48 % 0.00 in /  0 mm
14:42 61.1 °F /  16.2 °C 41.8 °F /  5.4 °C 30.26 in /  1024.6 hPa WNW 2.3 mph /  3.7 km/h 2.3 mph /  3.7 km/h 49 % 0.00 in /  0 mm
14:45 61.1 °F /  16.2 °C 41.2 °F /  5.1 °C 30.26 in /  1024.6 hPa WNW 1.2 mph /  1.9 km/h 1.2 mph /  1.9 km/h 48 % 0.00 in /  0 mm
14:50 61.1 °F /  16.2 °C 40.7 °F /  4.8 °C 30.27 in /  1024.9 hPa NW 1.2 mph /  1.9 km/h 1.2 mph /  1.9 km/h 47 % 0.00 in /  0 mm
14:56 61.1 °F /  16.2 °C 41.2 °F /  5.1 °C 30.27 in /  1024.9 hPa NW 2.3 mph /  3.7 km/h 2.3 mph /  3.7 km/h 48 % 0.00 in /  0 mm
15:01 61.1 °F /  16.2 °C 41.2 °F /  5.1 °C 30.27 in /  1024.9 hPa NW 2.0 mph /  3.2 km/h 2.0 mph /  3.2 km/h 48 % 0.00 in /  0 mm
15:02 61.1 °F /  16.2 °C 40.7 °F /  4.8 °C 30.27 in /  1024.9 hPa NW 2.3 mph /  3.7 km/h 2.3 mph /  3.7 km/h 47 % 0.00 in /  0 mm
15:07 61.1 °F /  16.2 °C 40.7 °F /  4.8 °C 30.27 in /  1024.9 hPa NW 2.3 mph /  3.7 km/h 2.3 mph /  3.7 km/h 47 % 0.00 in /  0 mm
15:08 61.1 °F /  16.2 °C 40.7 °F /  4.8 °C 30.27 in /  1024.9 hPa WNW 3.0 mph /  4.8 km/h 3.0 mph /  4.8 km/h 47 % 0.00 in /  0 mm
15:09 61.1 °F /  16.2 °C 40.7 °F /  4.8 °C 30.27 in /  1024.9 hPa NW 3.5 mph /  5.6 km/h 3.5 mph /  5.6 km/h 47 % 0.00 in /  0 mm
15:11 61.1 °F /  16.2 °C 40.7 °F /  4.8 °C 30.27 in /  1024.9 hPa NW 3.5 mph /  5.6 km/h 3.5 mph /  5.6 km/h 47 % 0.00 in /  0 mm
15:14 61.0 °F /  16.1 °C 41.2 °F /  5.1 °C 30.27 in /  1024.9 hPa NW 2.3 mph /  3.7 km/h 2.3 mph /  3.7 km/h 48 % 0.00 in /  0 mm
15:19 60.9 °F /  16.1 °C 41.6 °F /  5.3 °C 30.27 in /  1024.9 hPa WNW 2.3 mph /  3.7 km/h 2.3 mph /  3.7 km/h 49 % 0.00 in /  0 mm
15:20 60.9 °F /  16.1 °C 41.6 °F /  5.3 °C 30.27 in /  1024.9 hPa NW 1.2 mph /  1.9 km/h 1.2 mph /  1.9 km/h 49 % 0.00 in /  0 mm
15:23 60.9 °F /  16.1 °C 41.1 °F /  5.1 °C 30.27 in /  1024.9 hPa NW 3.5 mph /  5.6 km/h 3.5 mph /  5.6 km/h 48 % 0.00 in /  0 mm
15:27 60.8 °F /  16 °C 41.0 °F /  5 °C 30.27 in /  1024.9 hPa NW 3.5 mph /  5.6 km/h 3.5 mph /  5.6 km/h 48 % 0.00 in /  0 mm
15:29 60.8 °F /  16 °C 41.0 °F /  5 °C 30.27 in /  1024.9 hPa NW 2.3 mph /  3.7 km/h 2.3 mph /  3.7 km/h 48 % 0.00 in /  0 mm
15:33 60.7 °F /  15.9 °C 41.4 °F /  5.2 °C 30.27 in /  1024.9 hPa NW 2.3 mph /  3.7 km/h 2.3 mph /  3.7 km/h 49 % 0.00 in /  0 mm
15:35 60.7 °F /  15.9 °C 41.9 °F /  5.5 °C 30.27 in /  1024.9 hPa NW 1.2 mph /  1.9 km/h 1.2 mph /  1.9 km/h 50 % 0.00 in /  0 mm
15:38 60.6 °F /  15.9 °C 41.3 °F /  5.2 °C 30.27 in /  1024.9 hPa NW 1.2 mph /  1.9 km/h 1.2 mph /  1.9 km/h 49 % 0.00 in /  0 mm
15:43 60.4 °F /  15.8 °C 41.1 °F /  5.1 °C 30.26 in /  1024.6 hPa NW 1.2 mph /  1.9 km/h 1.2 mph /  1.9 km/h 49 % 0.00 in /  0 mm
15:44 60.4 °F /  15.8 °C 41.7 °F /  5.4 °C 30.26 in /  1024.6 hPa NW 1.2 mph /  1.9 km/h   50 % 0.00 in /  0 mm
15:49 60.2 °F /  15.7 °C 42.0 °F /  5.6 °C 30.26 in /  1024.6 hPa Calm     51 % 0.00 in /  0 mm
15:51 60.1 °F /  15.6 °C 41.4 °F /  5.2 °C 30.26 in /  1024.6 hPa Calm     50 % 0.00 in /  0 mm
15:53 60.1 °F /  15.6 °C 41.4 °F /  5.2 °C 30.26 in /  1024.6 hPa Calm     50 % 0.00 in /  0 mm
15:56 59.9 °F /  15.5 °C 41.2 °F /  5.1 °C 30.26 in /  1024.6 hPa Calm     50 % 0.00 in /  0 mm
16:01 59.7 °F /  15.4 °C 41.0 °F /  5 °C 30.26 in /  1024.6 hPa Calm     50 % 0.00 in /  0 mm
16:03 59.7 °F /  15.4 °C 41.0 °F /  5 °C 30.25 in /  1024.3 hPa Calm     50 % 0.00 in /  0 mm
16:08 59.5 °F /  15.3 °C 41.3 °F /  5.2 °C 30.26 in /  1024.6 hPa Calm     51 % 0.00 in /  0 mm
16:14 59.1 °F /  15.1 °C 42.0 °F /  5.6 °C 30.26 in /  1024.6 hPa Calm     53 % 0.00 in /  0 mm
16:15 58.9 °F /  14.9 °C 41.8 °F /  5.4 °C 30.26 in /  1024.6 hPa Calm     53 % 0.00 in /  0 mm
16:20 58.5 °F /  14.7 °C 41.9 °F /  5.5 °C 30.26 in /  1024.6 hPa Calm     54 % 0.00 in /  0 mm
16:21 58.4 °F /  14.7 °C 41.8 °F /  5.4 °C 30.26 in /  1024.6 hPa Calm     54 % 0.00 in /  0 mm
16:26 58.0 °F /  14.4 °C 41.9 °F /  5.5 °C 30.26 in /  1024.6 hPa Calm     55 % 0.00 in /  0 mm
16:27 57.9 °F /  14.4 °C 41.8 °F /  5.4 °C 30.26 in /  1024.6 hPa Calm     55 % 0.00 in /  0 mm
16:29 57.8 °F /  14.3 °C 42.2 °F /  5.7 °C 30.26 in /  1024.6 hPa Calm     56 % 0.00 in /  0 mm
16:33 57.2 °F /  14 °C 41.6 °F /  5.3 °C 30.26 in /  1024.6 hPa Calm     56 % 0.00 in /  0 mm
16:38 56.7 °F /  13.7 °C 41.6 °F /  5.3 °C 30.25 in /  1024.3 hPa Calm     57 % 0.00 in /  0 mm
16:39 56.7 °F /  13.7 °C 41.6 °F /  5.3 °C 30.25 in /  1024.3 hPa Calm     57 % 0.00 in /  0 mm
16:44 55.8 °F /  13.2 °C 41.7 °F /  5.4 °C 30.26 in /  1024.6 hPa Calm     59 % 0.00 in /  0 mm
16:48 55.3 °F /  12.9 °C 41.6 °F /  5.3 °C 30.26 in /  1024.6 hPa Calm     60 % 0.00 in /  0 mm
16:53 54.7 °F /  12.6 °C 41.1 °F /  5.1 °C 30.26 in /  1024.6 hPa Calm     60 % 0.00 in /  0 mm
16:58 54.5 °F /  12.5 °C 41.3 °F /  5.2 °C 30.25 in /  1024.3 hPa Calm     61 % 0.00 in /  0 mm
17:03 54.0 °F /  12.2 °C 41.3 °F /  5.2 °C 30.25 in /  1024.3 hPa Calm     62 % 0.00 in /  0 mm
17:04 53.9 °F /  12.2 °C 41.2 °F /  5.1 °C 30.25 in /  1024.3 hPa Calm     62 % 0.00 in /  0 mm
17:09 53.3 °F /  11.8 °C 41.4 °F /  5.2 °C 30.26 in /  1024.6 hPa Calm     64 % 0.00 in /  0 mm
17:10 53.3 °F /  11.8 °C 41.4 °F /  5.2 °C 30.25 in /  1024.3 hPa Calm     64 % 0.00 in /  0 mm
17:17 52.5 °F /  11.4 °C 41.1 °F /  5.1 °C 30.25 in /  1024.3 hPa Calm     65 % 0.00 in /  0 mm
17:20 52.2 °F /  11.2 °C 42.0 °F /  5.6 °C 30.25 in /  1024.3 hPa Calm     68 % 0.00 in /  0 mm
17:22 52.0 °F /  11.1 °C 42.5 °F /  5.8 °C 30.25 in /  1024.3 hPa Calm     70 % 0.00 in /  0 mm
17:27 51.6 °F /  10.9 °C 42.1 °F /  5.6 °C 30.25 in /  1024.3 hPa Calm     70 % 0.00 in /  0 mm
17:28 51.7 °F /  10.9 °C 42.2 °F /  5.7 °C 30.25 in /  1024.3 hPa Calm     70 % 0.00 in /  0 mm
17:29 51.6 °F /  10.9 °C 42.1 °F /  5.6 °C 30.25 in /  1024.3 hPa Calm     70 % 0.00 in /  0 mm
17:34 51.4 °F /  10.8 °C 41.6 °F /  5.3 °C 30.25 in /  1024.3 hPa Calm     69 % 0.00 in /  0 mm
17:35 51.3 °F /  10.7 °C 41.5 °F /  5.3 °C 30.25 in /  1024.3 hPa Calm     69 % 0.00 in /  0 mm
17:40 50.9 °F /  10.5 °C 41.8 °F /  5.4 °C 30.25 in /  1024.3 hPa Calm     71 % 0.00 in /  0 mm
17:45 50.3 °F /  10.2 °C 41.3 °F /  5.2 °C 30.26 in /  1024.6 hPa Calm     71 % 0.00 in /  0 mm
17:46 50.3 °F /  10.2 °C 41.3 °F /  5.2 °C 30.26 in /  1024.6 hPa Calm     71 % 0.00 in /  0 mm
17:47 50.2 °F /  10.1 °C 41.2 °F /  5.1 °C 30.26 in /  1024.6 hPa Calm     71 % 0.00 in /  0 mm
17:52 49.8 °F /  9.9 °C 41.1 °F /  5.1 °C 30.26 in /  1024.6 hPa Calm     72 % 0.00 in /  0 mm
17:55 49.6 °F /  9.8 °C 40.9 °F /  4.9 °C 30.26 in /  1024.6 hPa Calm     72 % 0.00 in /  0 mm
17:58 49.3 °F /  9.6 °C 41.0 °F /  5 °C 30.26 in /  1024.6 hPa Calm     73 % 0.00 in /  0 mm
18:01 49.1 °F /  9.5 °C 41.2 °F /  5.1 °C 30.26 in /  1024.6 hPa Calm     74 % 0.00 in /  0 mm
18:06 49.0 °F /  9.4 °C 41.4 °F /  5.2 °C 30.25 in /  1024.3 hPa Calm     75 % 0.00 in /  0 mm
18:07 49.0 °F /  9.4 °C 41.4 °F /  5.2 °C 30.25 in /  1024.3 hPa Calm     75 % 0.00 in /  0 mm
18:12 49.1 °F /  9.5 °C 41.2 °F /  5.1 °C 30.26 in /  1024.6 hPa Calm     74 % 0.00 in /  0 mm
18:13 49.0 °F /  9.4 °C 41.4 °F /  5.2 °C 30.26 in /  1024.6 hPa Calm     75 % 0.00 in /  0 mm
18:18 48.4 °F /  9.1 °C 40.8 °F /  4.9 °C 30.26 in /  1024.6 hPa Calm     75 % 0.00 in /  0 mm
18:19 48.4 °F /  9.1 °C 40.8 °F /  4.9 °C 30.26 in /  1024.6 hPa Calm     75 % 0.00 in /  0 mm
18:24 48.0 °F /  8.9 °C 40.8 °F /  4.9 °C 30.26 in /  1024.6 hPa Calm     76 % 0.00 in /  0 mm
18:25 47.9 °F /  8.8 °C 40.7 °F /  4.8 °C 30.26 in /  1024.6 hPa Calm     76 % 0.00 in /  0 mm
18:30 47.7 °F /  8.7 °C 40.5 °F /  4.7 °C 30.27 in /  1024.9 hPa Calm     76 % 0.00 in /  0 mm
18:31 47.6 °F /  8.7 °C 40.7 °F /  4.8 °C 30.27 in /  1024.9 hPa Calm     77 % 0.00 in /  0 mm
18:36 47.6 °F /  8.7 °C 40.7 °F /  4.8 °C 30.27 in /  1024.9 hPa Calm     77 % 0.00 in /  0 mm
18:38 47.7 °F /  8.7 °C 40.8 °F /  4.9 °C 30.27 in /  1024.9 hPa Calm     77 % 0.00 in /  0 mm
18:43 47.9 °F /  8.8 °C 40.7 °F /  4.8 °C 30.27 in /  1024.9 hPa Calm     76 % 0.00 in /  0 mm
18:46 47.7 °F /  8.7 °C 40.5 °F /  4.7 °C 30.27 in /  1024.9 hPa Calm     76 % 0.00 in /  0 mm
18:51 47.4 °F /  8.6 °C 40.6 °F /  4.8 °C 30.27 in /  1024.9 hPa Calm     77 % 0.00 in /  0 mm
18:54 47.4 °F /  8.6 °C 40.6 °F /  4.8 °C 30.27 in /  1024.9 hPa Calm     77 % 0.00 in /  0 mm
18:55 47.4 °F /  8.6 °C 40.6 °F /  4.8 °C 30.27 in /  1024.9 hPa Calm     77 % 0.00 in /  0 mm
18:59 47.4 °F /  8.6 °C 40.6 °F /  4.8 °C 30.27 in /  1024.9 hPa Calm     77 % 0.00 in /  0 mm
19:04 47.3 °F /  8.5 °C 40.5 °F /  4.7 °C 30.27 in /  1024.9 hPa Calm     77 % 0.00 in /  0 mm
19:06 47.2 °F /  8.4 °C 40.4 °F /  4.7 °C 30.27 in /  1024.9 hPa Calm     77 % 0.00 in /  0 mm
19:11 47.1 °F /  8.4 °C 39.9 °F /  4.4 °C 30.28 in /  1025.3 hPa Calm     76 % 0.00 in /  0 mm
19:17 46.9 °F /  8.3 °C 39.7 °F /  4.3 °C 30.28 in /  1025.3 hPa Calm     76 % 0.00 in /  0 mm
19:19 46.8 °F /  8.2 °C 39.6 °F /  4.2 °C 30.28 in /  1025.3 hPa Calm     76 % 0.00 in /  0 mm
19:22 46.6 °F /  8.1 °C 39.8 °F /  4.3 °C 30.28 in /  1025.3 hPa Calm     77 % 0.00 in /  0 mm
19:27 46.8 °F /  8.2 °C 40.0 °F /  4.4 °C 30.28 in /  1025.3 hPa Calm     77 % 0.00 in /  0 mm
19:29 47.0 °F /  8.3 °C 40.2 °F /  4.6 °C 30.28 in /  1025.3 hPa Calm     77 % 0.00 in /  0 mm
19:34 47.1 °F /  8.4 °C 39.9 °F /  4.4 °C 30.28 in /  1025.3 hPa Calm     76 % 0.00 in /  0 mm
19:35 47.0 °F /  8.3 °C 39.8 °F /  4.3 °C 30.28 in /  1025.3 hPa Calm     76 % 0.00 in /  0 mm
19:40 46.9 °F /  8.3 °C 39.7 °F /  4.3 °C 30.28 in /  1025.3 hPa Calm     76 % 0.00 in /  0 mm
19:41 46.9 °F /  8.3 °C 39.7 °F /  4.3 °C 30.28 in /  1025.3 hPa Calm     76 % 0.00 in /  0 mm
19:47 47.0 °F /  8.3 °C 39.8 °F /  4.3 °C 30.28 in /  1025.3 hPa Calm     76 % 0.00 in /  0 mm
19:50 46.9 °F /  8.3 °C 39.7 °F /  4.3 °C 30.28 in /  1025.3 hPa Calm     76 % 0.00 in /  0 mm
19:54 46.7 °F /  8.2 °C 39.5 °F /  4.2 °C 30.28 in /  1025.3 hPa Calm     76 % 0.00 in /  0 mm
19:58 46.4 °F /  8 °C 39.2 °F /  4 °C 30.28 in /  1025.3 hPa Calm     76 % 0.00 in /  0 mm
20:02 46.0 °F /  7.8 °C 39.2 °F /  4 °C 30.29 in /  1025.6 hPa Calm     77 % 0.00 in /  0 mm
20:07 45.6 °F /  7.6 °C 39.1 °F /  3.9 °C 30.28 in /  1025.3 hPa Calm     78 % 0.00 in /  0 mm
20:08 45.7 °F /  7.6 °C 39.2 °F /  4 °C 30.28 in /  1025.3 hPa Calm     78 % 0.00 in /  0 mm
20:13 46.1 °F /  7.8 °C 39.6 °F /  4.2 °C 30.28 in /  1025.3 hPa Calm     78 % 0.00 in /  0 mm
20:18 46.9 °F /  8.3 °C 39.7 °F /  4.3 °C 30.27 in /  1024.9 hPa East 1.2 mph /  1.9 km/h 1.2 mph /  1.9 km/h 76 % 0.00 in /  0 mm
20:19 47.0 °F /  8.3 °C 39.8 °F /  4.3 °C 30.27 in /  1024.9 hPa East 1.2 mph /  1.9 km/h 1.2 mph /  1.9 km/h 76 % 0.00 in /  0 mm
20:23 47.3 °F /  8.5 °C 39.8 °F /  4.3 °C 30.28 in /  1025.3 hPa Calm     75 % 0.00 in /  0 mm
20:24 47.3 °F /  8.5 °C 39.8 °F /  4.3 °C 30.28 in /  1025.3 hPa Calm     75 % 0.00 in /  0 mm
20:29 47.3 °F /  8.5 °C 39.8 °F /  4.3 °C 30.28 in /  1025.3 hPa Calm     75 % 0.00 in /  0 mm
20:30 47.3 °F /  8.5 °C 39.8 °F /  4.3 °C 30.28 in /  1025.3 hPa Calm     75 % 0.00 in /  0 mm
20:35 46.8 °F /  8.2 °C 39.3 °F /  4.1 °C 30.28 in /  1025.3 hPa Calm     75 % 0.00 in /  0 mm
20:39 46.2 °F /  7.9 °C 39.1 °F /  3.9 °C 30.28 in /  1025.3 hPa Calm     76 % 0.00 in /  0 mm
20:40 46.1 °F /  7.8 °C 39.0 °F /  3.9 °C 30.28 in /  1025.3 hPa Calm     76 % 0.00 in /  0 mm
20:45 45.6 °F /  7.6 °C 38.8 °F /  3.8 °C 30.27 in /  1024.9 hPa Calm     77 % 0.00 in /  0 mm
20:47 45.5 °F /  7.5 °C 39.0 °F /  3.9 °C 30.27 in /  1024.9 hPa Calm     78 % 0.00 in /  0 mm
20:52 44.8 °F /  7.1 °C 38.7 °F /  3.7 °C 30.28 in /  1025.3 hPa Calm     79 % 0.00 in /  0 mm
20:53 44.7 °F /  7.1 °C 38.6 °F /  3.7 °C 30.28 in /  1025.3 hPa Calm     79 % 0.00 in /  0 mm
20:57 44.3 °F /  6.8 °C 38.5 °F /  3.6 °C 30.28 in /  1025.3 hPa Calm     80 % 0.00 in /  0 mm
21:00 44.0 °F /  6.7 °C 38.2 °F /  3.4 °C 30.28 in /  1025.3 hPa Calm     80 % 0.00 in /  0 mm
21:04 43.6 °F /  6.4 °C 37.8 °F /  3.2 °C 30.28 in /  1025.3 hPa Calm     80 % 0.00 in /  0 mm
21:09 43.3 °F /  6.3 °C 37.9 °F /  3.3 °C 30.28 in /  1025.3 hPa Calm     81 % 0.00 in /  0 mm
21:13 43.3 °F /  6.3 °C 37.9 °F /  3.3 °C 30.28 in /  1025.3 hPa Calm     81 % 0.00 in /  0 mm
21:18 43.4 °F /  6.3 °C 38.3 °F /  3.5 °C 30.28 in /  1025.3 hPa Calm     82 % 0.00 in /  0 mm
21:20 43.5 °F /  6.4 °C 38.4 °F /  3.6 °C 30.28 in /  1025.3 hPa Calm     82 % 0.00 in /  0 mm
21:23 43.7 °F /  6.5 °C 38.3 °F /  3.5 °C 30.28 in /  1025.3 hPa Calm     81 % 0.00 in /  0 mm
21:26 43.7 °F /  6.5 °C 38.3 °F /  3.5 °C 30.28 in /  1025.3 hPa Calm     81 % 0.00 in /  0 mm
21:34 43.7 °F /  6.5 °C 38.3 °F /  3.5 °C 30.27 in /  1024.9 hPa Calm     81 % 0.00 in /  0 mm
21:38 43.5 °F /  6.4 °C 37.7 °F /  3.2 °C 30.27 in /  1024.9 hPa Calm     80 % 0.00 in /  0 mm
21:40 43.4 °F /  6.3 °C 38.0 °F /  3.3 °C 30.27 in /  1024.9 hPa Calm     81 % 0.00 in /  0 mm
21:46 43.3 °F /  6.3 °C 37.9 °F /  3.3 °C 30.28 in /  1025.3 hPa Calm     81 % 0.00 in /  0 mm
21:48 43.3 °F /  6.3 °C 37.9 °F /  3.3 °C 30.28 in /  1025.3 hPa Calm     81 % 0.00 in /  0 mm
21:53 43.1 °F /  6.2 °C 37.7 °F /  3.2 °C 30.28 in /  1025.3 hPa Calm     81 % 0.00 in /  0 mm
21:55 43.0 °F /  6.1 °C 37.9 °F /  3.3 °C 30.28 in /  1025.3 hPa Calm     82 % 0.00 in /  0 mm
22:00 43.0 °F /  6.1 °C 37.9 °F /  3.3 °C 30.28 in /  1025.3 hPa Calm     82 % 0.00 in /  0 mm
22:01 43.0 °F /  6.1 °C 37.9 °F /  3.3 °C 30.28 in /  1025.3 hPa Calm     82 % 0.00 in /  0 mm
22:06 42.8 °F /  6 °C 37.7 °F /  3.2 °C 30.28 in /  1025.3 hPa Calm     82 % 0.00 in /  0 mm
22:16 42.0 °F /  5.6 °C 37.2 °F /  2.9 °C 30.30 in /  1026 hPa Calm     83 % 0.00 in /  0 mm
22:18 42.0 °F /  5.6 °C 37.2 °F /  2.9 °C 30.30 in /  1026 hPa Calm     83 % 0.00 in /  0 mm
22:21 41.9 °F /  5.5 °C 37.1 °F /  2.8 °C 30.30 in /  1026 hPa Calm     83 % 0.00 in /  0 mm
22:25 41.7 °F /  5.4 °C 36.9 °F /  2.7 °C 30.29 in /  1025.6 hPa Calm     83 % 0.00 in /  0 mm
22:30 41.8 °F /  5.4 °C 37.3 °F /  2.9 °C 30.29 in /  1025.6 hPa Calm     84 % 0.00 in /  0 mm
22:31 41.8 °F /  5.4 °C 37.3 °F /  2.9 °C 30.29 in /  1025.6 hPa Calm     84 % 0.00 in /  0 mm
22:35 42.1 °F /  5.6 °C 37.6 °F /  3.1 °C 30.29 in /  1025.6 hPa Calm     84 % 0.00 in /  0 mm
22:36 42.2 °F /  5.7 °C 37.4 °F /  3 °C 30.29 in /  1025.6 hPa Calm     83 % 0.00 in /  0 mm
22:41 42.2 °F /  5.7 °C 37.4 °F /  3 °C 30.29 in /  1025.6 hPa Calm     83 % 0.00 in /  0 mm
22:46 42.3 °F /  5.7 °C 37.5 °F /  3.1 °C 30.30 in /  1026 hPa Calm     83 % 0.00 in /  0 mm
22:47 42.3 °F /  5.7 °C 37.5 °F /  3.1 °C 30.30 in /  1026 hPa Calm     83 % 0.00 in /  0 mm
22:52 42.4 °F /  5.8 °C 37.6 °F /  3.1 °C 30.30 in /  1026 hPa Calm     83 % 0.00 in /  0 mm
22:57 42.3 °F /  5.7 °C 37.2 °F /  2.9 °C 30.30 in /  1026 hPa Calm     82 % 0.00 in /  0 mm
22:58 42.3 °F /  5.7 °C 37.2 °F /  2.9 °C 30.30 in /  1026 hPa Calm     82 % 0.00 in /  0 mm
23:03 42.0 °F /  5.6 °C 36.9 °F /  2.7 °C 30.30 in /  1026 hPa Calm     82 % 0.00 in /  0 mm
23:06 41.8 °F /  5.4 °C 37.0 °F /  2.8 °C 30.31 in /  1026.3 hPa Calm     83 % 0.00 in /  0 mm
23:11 41.3 °F /  5.2 °C 36.5 °F /  2.5 °C 30.31 in /  1026.3 hPa Calm     83 % 0.00 in /  0 mm
23:15 41.1 °F /  5.1 °C 36.6 °F /  2.6 °C 30.31 in /  1026.3 hPa Calm     84 % 0.00 in /  0 mm
23:20 41.2 °F /  5.1 °C 37.0 °F /  2.8 °C 30.31 in /  1026.3 hPa Calm     85 % 0.00 in /  0 mm
23:21 41.2 °F /  5.1 °C 37.0 °F /  2.8 °C 30.31 in /  1026.3 hPa Calm     85 % 0.00 in /  0 mm
23:24 41.4 °F /  5.2 °C 37.2 °F /  2.9 °C 30.31 in /  1026.3 hPa Calm     85 % 0.00 in /  0 mm
23:29 41.5 °F /  5.3 °C 37.0 °F /  2.8 °C 30.31 in /  1026.3 hPa East 1.2 mph /  1.9 km/h   84 % 0.00 in /  0 mm
23:31 41.5 °F /  5.3 °C 37.0 °F /  2.8 °C 30.32 in /  1026.6 hPa East 1.2 mph /  1.9 km/h 1.2 mph /  1.9 km/h 84 % 0.00 in /  0 mm
23:36 41.5 °F /  5.3 °C 37.0 °F /  2.8 °C 30.33 in /  1027 hPa Calm   0.1 mph /  0.2 km/h 84 % 0.00 in /  0 mm
23:41 41.6 °F /  5.3 °C 37.1 °F /  2.8 °C 30.33 in /  1027 hPa Calm     84 % 0.00 in /  0 mm
23:42 41.5 °F /  5.3 °C 37.0 °F /  2.8 °C 30.32 in /  1026.6 hPa Calm     84 % 0.00 in /  0 mm
23:43 41.6 °F /  5.3 °C 37.1 °F /  2.8 °C 30.33 in /  1027 hPa Calm     84 % 0.00 in /  0 mm
23:48 41.5 °F /  5.3 °C 37.0 °F /  2.8 °C 30.33 in /  1027 hPa Calm     84 % 0.00 in /  0 mm
23:52 41.3 °F /  5.2 °C 36.8 °F /  2.7 °C 30.33 in /  1027 hPa Calm     84 % 0.00 in /  0 mm
23:57 41.1 °F /  5.1 °C 36.6 °F /  2.6 °C 30.32 in /  1026.6 hPa Calm     84 % 0.00 in /  0 mm
23:58 41.1 °F /  5.1 °C 36.6 °F /  2.6 °C 30.32 in /  1026.6 hPa Calm     84 % 0.00 in /  0 mm
Park Place, Exeter, Tulare County, California, USA
Compliments of Weather Underground - 3.5 mb